createdAt,value
2022-10-24T00:01:17.337Z,0.77
2022-10-24T00:03:44.812Z,0.70
2022-10-24T00:06:13.126Z,0.80
2022-10-24T00:08:41.073Z,0.70
2022-10-24T00:11:10.690Z,0.60
2022-10-24T00:13:38.667Z,0.83
2022-10-24T00:16:08.037Z,0.60
2022-10-24T00:18:35.529Z,0.63
2022-10-24T00:21:03.149Z,0.70
2022-10-24T00:23:30.614Z,0.60
2022-10-24T00:26:01.589Z,0.50
2022-10-24T00:28:29.649Z,0.67
2022-10-24T00:30:57.302Z,0.70
2022-10-24T00:33:26.420Z,0.70
2022-10-24T00:35:54.170Z,0.80
2022-10-24T00:38:21.681Z,1.03
2022-10-24T00:40:49.074Z,0.77
2022-10-24T00:43:17.118Z,0.70
2022-10-24T00:45:47.136Z,0.60
2022-10-24T00:48:20.301Z,0.50
2022-10-24T00:50:50.379Z,0.70
2022-10-24T00:53:17.989Z,0.67
2022-10-24T00:55:47.552Z,0.70
2022-10-24T00:58:16.037Z,0.70
2022-10-24T01:00:43.557Z,0.70
2022-10-24T01:03:11.468Z,0.60
2022-10-24T01:05:42.050Z,0.77
2022-10-24T01:08:16.453Z,0.70
2022-10-24T01:10:49.319Z,0.80
2022-10-24T01:13:22.469Z,0.50
2022-10-24T01:15:51.959Z,0.43
2022-10-24T01:18:22.923Z,0.70
2022-10-24T01:20:58.109Z,0.70
2022-10-24T01:23:37.396Z,0.80
2022-10-24T01:26:17.643Z,0.80
2022-10-24T01:28:51.396Z,0.90
2022-10-24T01:31:25.005Z,0.80
2022-10-24T01:33:56.478Z,0.93
2022-10-24T01:36:30.815Z,0.60
2022-10-24T01:38:59.916Z,0.67
2022-10-24T01:41:28.903Z,0.60
2022-10-24T01:43:58.179Z,0.80
2022-10-24T01:46:28.613Z,0.70
2022-10-24T01:49:11.455Z,0.60
2022-10-24T01:51:39.682Z,0.70
2022-10-24T01:54:08.144Z,0.70
2022-10-24T01:56:35.692Z,0.60
2022-10-24T01:59:06.893Z,0.73
2022-10-24T02:01:36.396Z,0.90
2022-10-24T02:04:07.989Z,0.53
2022-10-24T02:06:38.317Z,0.63
2022-10-24T02:09:08.103Z,0.80
2022-10-24T02:11:35.886Z,0.80
2022-10-24T02:14:06.633Z,0.63
2022-10-24T02:16:35.791Z,0.80
2022-10-24T02:19:03.385Z,0.80
2022-10-24T02:21:34.638Z,0.77
2022-10-24T02:24:03.768Z,0.70
2022-10-24T02:26:32.817Z,0.70
2022-10-24T02:29:02.908Z,0.80
2022-10-24T02:31:32.777Z,0.70
2022-10-24T02:34:02.171Z,0.93
2022-10-24T02:36:30.658Z,0.80
2022-10-24T02:38:58.879Z,0.83
2022-10-24T02:41:28.133Z,0.70
2022-10-24T02:43:56.074Z,0.70
2022-10-24T02:46:24.500Z,1.00
2022-10-24T02:48:55.488Z,1.00
2022-10-24T02:51:26.227Z,0.77
2022-10-24T02:53:53.656Z,0.70
2022-10-24T02:56:21.094Z,0.80
2022-10-24T02:58:48.544Z,0.80
2022-10-24T03:01:16.323Z,0.80
2022-10-24T03:03:43.859Z,0.73
2022-10-24T03:06:11.312Z,0.70
2022-10-24T03:08:40.231Z,0.63
2022-10-24T03:11:07.888Z,0.63
2022-10-24T03:13:35.366Z,0.73
2022-10-24T03:16:06.684Z,0.80
2022-10-24T03:18:36.537Z,0.87
2022-10-24T03:21:04.046Z,0.77
2022-10-24T03:23:31.802Z,0.50
2022-10-24T03:26:00.945Z,0.60
2022-10-24T03:28:28.387Z,0.57
2022-10-24T03:30:56.275Z,0.70
2022-10-24T03:33:23.841Z,0.80
2022-10-24T03:35:52.535Z,0.97
2022-10-24T03:38:20.011Z,0.67
2022-10-24T03:40:47.468Z,0.77
2022-10-24T03:43:16.578Z,0.83
2022-10-24T03:45:44.007Z,0.90
2022-10-24T03:48:12.032Z,0.90
2022-10-24T03:50:39.488Z,0.90
2022-10-24T03:53:06.977Z,0.77
2022-10-24T03:55:34.949Z,0.80
2022-10-24T03:58:02.522Z,0.83
2022-10-24T04:00:32.563Z,0.70
2022-10-24T04:03:00.088Z,0.80
2022-10-24T04:05:27.624Z,0.80
2022-10-24T04:07:55.105Z,0.70
2022-10-24T04:10:22.679Z,0.70
2022-10-24T04:12:50.161Z,0.60
2022-10-24T04:15:17.670Z,0.80
2022-10-24T04:17:46.784Z,0.90
2022-10-24T04:20:19.356Z,0.80
2022-10-24T04:22:47.141Z,0.80
2022-10-24T04:25:14.878Z,0.80
2022-10-24T04:27:42.370Z,1.00
2022-10-24T04:30:16.339Z,0.80
2022-10-24T04:32:44.622Z,0.90
2022-10-24T04:35:14.103Z,0.70
2022-10-24T04:37:41.581Z,1.10
2022-10-24T04:40:09.470Z,1.07
2022-10-24T04:42:36.942Z,0.90
2022-10-24T04:45:04.435Z,0.80
2022-10-24T04:47:31.858Z,0.77
2022-10-24T04:49:59.320Z,0.70
2022-10-24T04:52:28.109Z,0.70
2022-10-24T04:54:55.668Z,1.00
2022-10-24T04:57:23.159Z,1.00
2022-10-24T04:59:50.638Z,0.77
2022-10-24T05:02:18.165Z,1.20
2022-10-24T05:04:45.699Z,1.03
2022-10-24T05:07:13.143Z,1.03
2022-10-24T05:09:41.960Z,1.00
2022-10-24T05:12:09.444Z,1.17
2022-10-24T05:14:36.915Z,1.10
2022-10-24T05:17:04.368Z,1.00
2022-10-24T05:19:31.863Z,0.90
2022-10-24T05:21:59.321Z,1.20
2022-10-24T05:24:26.740Z,1.10
2022-10-24T05:26:55.497Z,1.20
2022-10-24T05:29:22.995Z,1.00
2022-10-24T05:31:50.471Z,0.90
2022-10-24T05:34:17.971Z,1.00
2022-10-24T05:36:45.456Z,1.20
2022-10-24T05:39:13.034Z,1.30
2022-10-24T05:41:44.688Z,1.13
2022-10-24T05:44:16.173Z,1.00
2022-10-24T05:46:43.652Z,1.30
2022-10-24T05:49:13.681Z,1.07
2022-10-24T05:51:41.170Z,1.30
2022-10-24T05:54:08.674Z,1.43
2022-10-24T05:56:36.206Z,1.00
2022-10-24T05:59:03.838Z,1.20
2022-10-24T06:01:33.089Z,1.30
2022-10-24T06:04:00.610Z,1.00
2022-10-24T06:06:28.151Z,1.03
2022-10-24T06:08:55.683Z,1.20
2022-10-24T06:11:23.339Z,1.00
2022-10-24T06:13:50.763Z,1.27
2022-10-24T06:16:18.194Z,1.10
2022-10-24T06:18:46.945Z,1.20
2022-10-24T06:21:15.874Z,1.43
2022-10-24T06:23:43.315Z,1.20
2022-10-24T06:26:11.395Z,1.27
2022-10-24T06:28:38.966Z,1.23
2022-10-24T06:31:06.382Z,1.20
2022-10-24T06:33:33.772Z,1.13
2022-10-24T06:36:04.691Z,1.53
2022-10-24T06:38:32.059Z,1.17
2022-10-24T06:40:59.477Z,1.30
2022-10-24T06:43:26.875Z,1.63
2022-10-24T06:45:55.462Z,1.20
2022-10-24T06:48:22.841Z,1.10
2022-10-24T06:50:50.230Z,1.20
2022-10-24T06:53:18.993Z,1.20
2022-10-24T06:55:46.431Z,1.30
2022-10-24T06:58:13.846Z,1.50
2022-10-24T07:00:41.222Z,1.33
2022-10-24T07:03:08.662Z,1.40
2022-10-24T07:05:37.950Z,1.30
2022-10-24T07:08:06.163Z,1.13
2022-10-24T07:10:34.935Z,1.73
2022-10-24T07:13:02.372Z,1.40
2022-10-24T07:15:29.846Z,1.50
2022-10-24T07:17:57.284Z,1.40
2022-10-24T07:20:24.782Z,1.20
2022-10-24T07:22:52.284Z,1.30
2022-10-24T07:25:19.695Z,1.30
2022-10-24T07:27:52.471Z,1.60
2022-10-24T07:30:20.116Z,1.10
2022-10-24T07:32:48.714Z,1.30
2022-10-24T07:35:16.184Z,2.27
2022-10-24T07:37:43.870Z,1.80
2022-10-24T07:40:12.080Z,1.77
2022-10-24T07:42:39.585Z,2.07
2022-10-24T07:45:09.203Z,1.60
2022-10-24T07:47:36.594Z,1.00
2022-10-24T07:50:04.705Z,1.03
2022-10-24T07:52:32.161Z,1.10
2022-10-24T07:54:59.568Z,1.30
2022-10-24T07:57:26.980Z,1.20
2022-10-24T07:59:54.418Z,0.83
2022-10-24T08:02:23.180Z,1.03
2022-10-24T08:04:50.656Z,0.90
2022-10-24T08:07:18.091Z,1.07
2022-10-24T08:09:46.911Z,1.20
2022-10-24T08:12:14.768Z,1.50
2022-10-24T08:14:42.384Z,1.43
2022-10-24T08:17:10.074Z,1.73
2022-10-24T08:19:43.737Z,1.67
2022-10-24T08:22:12.297Z,1.43
2022-10-24T08:24:39.737Z,1.93
2022-10-24T08:27:07.169Z,1.70
2022-10-24T08:29:34.592Z,2.40
2022-10-24T08:32:02.014Z,2.60
2022-10-24T08:34:29.486Z,6.23
2022-10-24T08:36:58.250Z,3.27
2022-10-24T08:39:27.032Z,2.00
2022-10-24T08:41:59.291Z,1.53
2022-10-24T08:44:30.143Z,1.27
2022-10-24T08:46:59.920Z,1.47
2022-10-24T08:49:33.655Z,1.47
2022-10-24T08:52:04.445Z,1.70
2022-10-24T08:54:36.856Z,1.40
2022-10-24T08:57:05.151Z,1.73
2022-10-24T08:59:34.287Z,1.73
2022-10-24T09:02:04.904Z,2.47
2022-10-24T09:04:37.248Z,1.53
2022-10-24T09:07:06.580Z,1.57
2022-10-24T09:09:37.205Z,1.77
2022-10-24T09:12:07.943Z,1.77
2022-10-24T09:14:37.540Z,1.30
2022-10-24T09:17:11.809Z,1.60
2022-10-24T09:19:39.444Z,1.57
2022-10-24T09:22:09.091Z,1.37
2022-10-24T09:24:40.772Z,1.47
2022-10-24T09:27:11.812Z,1.10
2022-10-24T09:29:39.679Z,1.30
2022-10-24T09:32:14.372Z,1.17
2022-10-24T09:34:41.956Z,1.10
2022-10-24T09:37:32.505Z,1.33
2022-10-24T09:40:07.349Z,1.20
2022-10-24T09:42:35.168Z,1.20
2022-10-24T09:45:02.793Z,1.30
2022-10-24T09:47:30.775Z,1.30
2022-10-24T09:49:58.386Z,1.23
2022-10-24T09:52:29.767Z,1.20
2022-10-24T09:55:05.881Z,1.20
2022-10-24T09:57:39.480Z,1.20
2022-10-24T10:00:07.943Z,1.73
2022-10-24T10:02:36.575Z,1.10
2022-10-24T10:05:17.714Z,1.60
2022-10-24T10:07:48.675Z,1.60
2022-10-24T10:10:27.606Z,1.77
2022-10-24T10:12:59.871Z,1.37
2022-10-24T10:15:30.233Z,1.63
2022-10-24T10:17:58.794Z,1.57
2022-10-24T10:20:29.241Z,1.70
2022-10-24T10:23:12.727Z,1.67
2022-10-24T10:25:40.109Z,1.60
2022-10-24T10:28:19.394Z,2.13
2022-10-24T10:30:49.157Z,1.63
2022-10-24T10:33:20.065Z,1.40
2022-10-24T10:35:52.442Z,1.77
2022-10-24T10:38:30.292Z,1.73
2022-10-24T10:41:02.794Z,1.60
2022-10-24T10:43:33.188Z,1.80
2022-10-24T10:46:07.587Z,2.13
2022-10-24T10:48:39.807Z,1.93
2022-10-24T10:51:12.381Z,1.50
2022-10-24T10:53:43.268Z,1.57
2022-10-24T10:56:17.459Z,1.50
2022-10-24T10:58:47.833Z,1.60
2022-10-24T11:01:17.965Z,1.80
2022-10-24T11:03:47.546Z,1.67
2022-10-24T11:06:22.076Z,1.50
2022-10-24T11:09:15.228Z,1.30
2022-10-24T11:11:44.193Z,1.63
2022-10-24T11:14:18.703Z,1.53
2022-10-24T11:16:46.928Z,1.23
2022-10-24T11:19:22.247Z,1.40
2022-10-24T11:21:51.032Z,1.57
2022-10-24T11:24:21.211Z,2.00
2022-10-24T11:26:53.482Z,1.80
2022-10-24T11:29:24.668Z,2.00
2022-10-24T11:31:55.043Z,1.60
2022-10-24T11:34:25.395Z,1.80
2022-10-24T11:36:56.025Z,1.93
2022-10-24T11:39:25.892Z,1.70
2022-10-24T11:41:55.092Z,1.90
2022-10-24T11:44:36.055Z,1.67
2022-10-24T11:47:08.287Z,1.90
2022-10-24T11:49:37.721Z,1.80
2022-10-24T11:52:09.978Z,1.53
2022-10-24T11:54:41.841Z,1.80
2022-10-24T11:57:11.375Z,1.40
2022-10-24T11:59:42.469Z,1.30
2022-10-24T12:02:29.794Z,1.40
2022-10-24T12:05:09.828Z,1.40
2022-10-24T12:07:54.978Z,1.57
2022-10-24T12:10:29.331Z,1.40
2022-10-24T12:13:07.223Z,1.37
2022-10-24T12:15:43.476Z,1.40
2022-10-24T12:18:13.031Z,1.20
2022-10-24T12:20:41.313Z,1.40
2022-10-24T12:23:17.863Z,1.30
2022-10-24T12:25:48.707Z,1.27
2022-10-24T12:28:20.748Z,1.50
2022-10-24T12:31:03.063Z,1.50
2022-10-24T12:33:31.004Z,1.40
2022-10-24T12:35:58.734Z,1.50
2022-10-24T12:38:45.012Z,1.50
2022-10-24T12:41:27.280Z,1.80
2022-10-24T12:44:21.008Z,1.27
2022-10-24T12:46:55.031Z,1.43
2022-10-24T12:49:27.902Z,1.30
2022-10-24T12:51:55.398Z,1.43
2022-10-24T12:54:37.706Z,1.73
2022-10-24T12:57:26.027Z,1.47
2022-10-24T12:59:56.854Z,1.70
2022-10-24T13:02:32.121Z,1.53
2022-10-24T13:05:04.532Z,1.60
2022-10-24T13:07:50.902Z,1.50
2022-10-24T13:10:25.873Z,1.50
2022-10-24T13:13:02.138Z,1.07
2022-10-24T13:15:35.510Z,1.20
2022-10-24T13:18:08.258Z,1.33
2022-10-24T13:20:37.960Z,1.30
2022-10-24T13:23:12.716Z,1.17
2022-10-24T13:25:40.673Z,1.47
2022-10-24T13:28:27.248Z,1.17
2022-10-24T13:31:10.344Z,1.63
2022-10-24T13:33:46.050Z,1.37
2022-10-24T13:36:17.600Z,1.00
2022-10-24T13:38:47.882Z,1.20
2022-10-24T13:41:20.648Z,1.30
2022-10-24T13:43:50.245Z,1.53
2022-10-24T13:46:23.870Z,1.20
2022-10-24T13:48:53.578Z,1.43
2022-10-24T13:51:22.629Z,1.27
2022-10-24T13:53:53.306Z,1.67
2022-10-24T13:56:21.323Z,1.60
2022-10-24T13:58:49.038Z,1.50
2022-10-24T14:01:19.700Z,1.57
2022-10-24T14:03:48.122Z,1.50
2022-10-24T14:06:17.466Z,1.70
2022-10-24T14:08:56.058Z,1.70
2022-10-24T14:11:30.548Z,1.80
2022-10-24T14:14:02.520Z,1.63
2022-10-24T14:16:33.894Z,1.20
2022-10-24T14:19:13.644Z,1.40
2022-10-24T14:21:46.239Z,1.40
2022-10-24T14:24:16.074Z,1.10
2022-10-24T14:26:45.500Z,1.33
2022-10-24T14:29:22.074Z,1.40
2022-10-24T14:31:55.133Z,1.40
2022-10-24T14:34:22.929Z,1.10
2022-10-24T14:36:51.921Z,1.33
2022-10-24T14:39:24.004Z,1.30
2022-10-24T14:41:52.496Z,0.97
2022-10-24T14:44:21.026Z,1.03
2022-10-24T14:47:01.581Z,1.27
2022-10-24T14:49:30.721Z,1.00
2022-10-24T14:52:01.805Z,0.83
2022-10-24T14:54:32.047Z,0.90
2022-10-24T14:57:00.749Z,0.90
2022-10-24T14:59:29.576Z,0.87
2022-10-24T15:01:57.875Z,1.00
2022-10-24T15:04:32.896Z,0.80
2022-10-24T15:07:14.134Z,1.10
2022-10-24T15:09:51.831Z,1.07
2022-10-24T15:12:24.795Z,0.90
2022-10-24T15:14:54.188Z,1.00
2022-10-24T15:17:28.360Z,1.10
2022-10-24T15:20:00.485Z,0.90
2022-10-24T15:22:31.436Z,1.00
2022-10-24T15:25:00.539Z,0.90
2022-10-24T15:27:29.236Z,1.10
2022-10-24T15:29:57.022Z,1.00
2022-10-24T15:32:26.490Z,0.97
2022-10-24T15:34:57.133Z,1.10
2022-10-24T15:37:25.163Z,1.13
2022-10-24T15:39:55.896Z,1.20
2022-10-24T15:42:23.735Z,1.10
2022-10-24T15:44:51.172Z,1.10
2022-10-24T15:47:18.629Z,1.00
2022-10-24T15:49:46.180Z,1.17
2022-10-24T15:52:16.348Z,1.10
2022-10-24T15:54:43.971Z,0.93
2022-10-24T15:57:13.958Z,1.43
2022-10-24T15:59:41.572Z,1.30
2022-10-24T16:02:13.514Z,1.37
2022-10-24T16:04:41.218Z,0.90
2022-10-24T16:09:42.124Z,1.20
2022-10-24T16:12:11.620Z,1.50
2022-10-24T16:14:40.377Z,1.50
2022-10-24T16:17:07.764Z,1.80
2022-10-24T16:19:35.159Z,1.47
2022-10-24T16:22:02.859Z,1.13
2022-10-24T16:24:30.454Z,1.00
2022-10-24T16:26:57.923Z,0.90
2022-10-24T16:29:25.296Z,1.00
2022-10-24T16:31:54.143Z,0.83
2022-10-24T16:34:21.583Z,0.90
2022-10-24T16:36:48.951Z,1.10
2022-10-24T16:39:16.348Z,0.80
2022-10-24T16:41:46.173Z,1.10
2022-10-24T16:44:14.215Z,1.10
2022-10-24T16:46:41.654Z,1.07
2022-10-24T16:49:10.404Z,1.10
2022-10-24T16:51:41.775Z,1.00
2022-10-24T16:54:11.544Z,1.17
2022-10-24T16:56:39.012Z,1.10
2022-10-24T16:59:07.104Z,1.10
2022-10-24T17:01:35.987Z,1.07
2022-10-24T17:04:03.517Z,1.20
2022-10-24T17:06:32.512Z,0.90
2022-10-24T17:09:00.010Z,0.97
2022-10-24T17:14:15.224Z,1.30
2022-10-24T17:16:42.965Z,0.90
2022-10-24T17:19:18.056Z,1.20
2022-10-24T17:21:48.493Z,1.00
2022-10-24T17:24:16.904Z,1.00
2022-10-24T17:26:44.649Z,1.10
2022-10-24T17:29:16.848Z,0.93
2022-10-24T17:31:44.563Z,1.10
2022-10-24T17:34:12.276Z,0.97
2022-10-24T17:36:41.235Z,1.03
2022-10-24T17:39:14.287Z,1.17
2022-10-24T17:41:42.418Z,1.27
2022-10-24T17:44:13.804Z,1.23
2022-10-24T17:46:42.037Z,1.27
2022-10-24T17:49:10.883Z,1.27
2022-10-24T17:51:41.068Z,1.23
2022-10-24T17:54:11.037Z,1.50
2022-10-24T17:56:38.743Z,1.10
2022-10-24T17:59:06.407Z,1.40
2022-10-24T18:01:36.410Z,1.27
2022-10-24T18:04:10.253Z,1.60
2022-10-24T18:06:42.924Z,1.50
2022-10-24T18:09:12.569Z,1.33
2022-10-24T18:11:40.249Z,1.37
2022-10-24T18:14:08.043Z,1.33
2022-10-24T18:16:37.052Z,1.07
2022-10-24T18:19:04.618Z,1.10
2022-10-24T18:21:32.161Z,1.33
2022-10-24T18:23:59.787Z,1.43
2022-10-24T18:26:29.553Z,1.23
2022-10-24T18:28:58.032Z,1.50
2022-10-24T18:31:26.694Z,1.27
2022-10-24T18:33:54.792Z,1.47
2022-10-24T18:36:24.398Z,2.27
2022-10-24T18:38:52.319Z,2.40
2022-10-24T18:41:23.799Z,1.77
2022-10-24T18:43:53.214Z,1.33
2022-10-24T18:46:21.247Z,1.50
2022-10-24T18:48:49.101Z,2.43
2022-10-24T18:51:22.097Z,1.80
2022-10-24T18:53:49.778Z,1.73
2022-10-24T18:56:20.006Z,2.03
2022-10-24T18:58:54.652Z,1.53
2022-10-24T19:01:27.764Z,1.70
2022-10-24T19:03:56.659Z,2.07
2022-10-24T19:06:25.564Z,1.83
2022-10-24T19:08:53.270Z,2.30
2022-10-24T19:11:22.206Z,1.50
2022-10-24T19:13:49.843Z,2.13
2022-10-24T19:16:19.944Z,1.73
2022-10-24T19:18:52.955Z,1.80
2022-10-24T19:21:20.703Z,1.60
2022-10-24T19:23:48.488Z,1.87
2022-10-24T19:26:15.974Z,1.77
2022-10-24T19:28:43.534Z,1.60
2022-10-24T19:31:12.463Z,1.63
2022-10-24T19:33:41.382Z,1.50
2022-10-24T19:36:13.364Z,1.50
2022-10-24T19:38:44.588Z,1.53
2022-10-24T19:41:12.137Z,1.63
2022-10-24T19:43:39.697Z,1.37
2022-10-24T19:46:19.227Z,1.30
2022-10-24T19:48:49.204Z,1.53
2022-10-24T19:51:19.109Z,1.40
2022-10-24T19:53:47.106Z,1.57
2022-10-24T19:56:15.387Z,1.30
2022-10-24T19:58:43.294Z,1.60
2022-10-24T20:01:12.089Z,1.20
2022-10-24T20:03:40.468Z,1.40
2022-10-24T20:06:08.484Z,1.30
2022-10-24T20:08:37.419Z,1.70
2022-10-24T20:11:05.254Z,1.77
2022-10-24T20:13:32.955Z,1.43
2022-10-24T20:16:01.310Z,1.80
2022-10-24T20:18:29.654Z,1.70
2022-10-24T20:20:57.485Z,1.30
2022-10-24T20:23:25.564Z,1.20
2022-10-24T20:25:59.914Z,1.57
2022-10-24T20:28:27.484Z,1.63
2022-10-24T20:30:55.205Z,1.60
2022-10-24T20:33:22.789Z,1.10
2022-10-24T20:35:50.426Z,1.47
2022-10-24T20:38:18.241Z,1.00
2022-10-24T20:40:45.963Z,1.00
2022-10-24T20:43:17.069Z,1.53
2022-10-24T20:45:44.674Z,1.20
2022-10-24T20:48:12.216Z,1.40
2022-10-24T20:50:39.761Z,1.00
2022-10-24T20:53:07.353Z,1.33
2022-10-24T20:55:44.288Z,1.10
2022-10-24T20:58:12.646Z,0.77
2022-10-24T21:03:15.237Z,1.00
2022-10-24T21:05:42.930Z,0.83
2022-10-24T21:08:10.570Z,0.80
2022-10-24T21:10:38.166Z,0.83
2022-10-24T21:13:05.657Z,0.80
2022-10-24T21:15:33.209Z,0.80
2022-10-24T21:18:02.096Z,0.80
2022-10-24T21:20:29.649Z,0.80
2022-10-24T21:22:57.204Z,0.67
2022-10-24T21:25:24.745Z,0.70
2022-10-24T21:27:52.354Z,0.97
2022-10-24T21:30:19.917Z,1.07
2022-10-24T21:32:47.535Z,0.90
2022-10-24T21:35:16.504Z,0.80
2022-10-24T21:37:44.297Z,0.70
2022-10-24T21:40:12.454Z,0.90
2022-10-24T21:42:40.017Z,0.70
2022-10-24T21:45:07.891Z,0.93
2022-10-24T21:47:35.407Z,1.00
2022-10-24T21:50:02.998Z,0.80
2022-10-24T21:52:32.005Z,0.70
2022-10-24T21:54:59.554Z,0.83
2022-10-24T21:57:28.885Z,0.90
2022-10-24T21:59:56.462Z,0.80
2022-10-24T22:02:24.175Z,0.70
2022-10-24T22:04:51.744Z,0.70
2022-10-24T22:07:19.225Z,0.80
2022-10-24T22:09:48.123Z,1.00
2022-10-24T22:12:15.544Z,0.80
2022-10-24T22:14:42.991Z,0.90
2022-10-24T22:17:10.412Z,0.60
2022-10-24T22:19:37.839Z,0.50
2022-10-24T22:22:05.228Z,0.67
2022-10-24T22:24:32.616Z,0.60
2022-10-24T22:27:01.363Z,0.50
2022-10-24T22:29:28.851Z,0.40
2022-10-24T22:31:56.571Z,0.50
2022-10-24T22:34:25.299Z,0.50
2022-10-24T22:37:03.482Z,0.40
2022-10-24T22:39:31.084Z,0.70
2022-10-24T22:41:58.775Z,0.50
2022-10-24T22:44:27.966Z,0.90
2022-10-24T22:47:02.307Z,0.60
2022-10-24T22:49:33.522Z,0.40
2022-10-24T22:52:01.311Z,0.40
2022-10-24T22:54:32.475Z,0.23
2022-10-24T22:57:00.203Z,0.40
2022-10-24T22:59:29.465Z,0.50
2022-10-24T23:02:00.551Z,0.30
2022-10-24T23:04:31.923Z,0.57
2022-10-24T23:07:03.639Z,0.43
2022-10-24T23:09:31.063Z,0.30
2022-10-24T23:11:58.787Z,0.33
2022-10-24T23:14:26.520Z,0.33
2022-10-24T23:16:57.678Z,0.50
2022-10-24T23:19:26.208Z,0.40
2022-10-24T23:21:55.975Z,0.60
2022-10-24T23:24:23.637Z,0.40
2022-10-24T23:27:11.255Z,0.40
2022-10-24T23:29:39.633Z,0.60
2022-10-24T23:32:11.387Z,0.40
2022-10-24T23:34:39.081Z,0.40
2022-10-24T23:37:06.707Z,0.50
2022-10-24T23:39:35.480Z,0.30
2022-10-24T23:42:04.764Z,0.33
2022-10-24T23:44:32.556Z,0.30
2022-10-24T23:47:02.122Z,0.30
2022-10-24T23:49:34.571Z,0.30
2022-10-24T23:52:06.090Z,0.30
2022-10-24T23:54:33.911Z,0.30
2022-10-24T23:57:01.612Z,0.30
2022-10-24T23:59:29.049Z,0.40
